Terminal Aerodrome Forecast
Issued by NWS Nashville, TN

Home | Current Version | Previous Version | Text Only | Print | Product List | Glossary On
Versions: 1 2 3 4 5 6 7 8 9 10 11 12 13 14 15 16 17 18
000
FTUS44 KOHX 241100
TAFBNA
TAF
KBNA 241128Z 2412/2512 15007KT P6SM SCT250
     FM241800 17012G22KT P6SM SCT250
     FM250100 18012G22KT P6SM VCTS SCT050CB BKN100 OVC250
     FM250400 19012G22KT 6SM -TSRA OVC050CB
      TEMPO 2504/2508 2SM -TSRA
     FM250800 21013G25KT 5SM -SHRA SCT015 OVC025CB
      TEMPO 2508/2512 2SM -TSRA BKN015CB OVC025=

USA.gov is the U.S. government's official web portal to all federal, state and local government web resources and services.